Time;durP1;ratioP1;P1;durP2;ratioP2;P2;SDS_P1;SDS_P2;PMS_P1;PMS_P2;Temp;Humidity;BMP_temperature;BMP_pressure;BME280_temperature;BME280_humidity;BME280_pressure;Samples;Min_cycle;Max_cycle;Signal;HPM_P1;HPM_P2
2022/04/17 00:00:25;;;;;;;6.90;2.00;;;;;;;;;;5031833;28;20325;-74
2022/04/17 00:02:51;;;;;;;4.63;1.88;;;;;;;;;;5031598;28;20029;-74
2022/04/17 00:05:17;;;;;;;5.55;2.55;;;;;;;;;;5033029;28;20034;-74
2022/04/17 00:07:44;;;;;;;6.35;2.28;;;;;;;;;;5033134;28;20047;-73
2022/04/17 00:10:10;;;;;;;3.70;1.75;;;;;;;;;;5032992;28;20487;-73
2022/04/17 00:12:36;;;;;;;7.22;2.53;;;;;;;;;;5032965;28;20452;-74
2022/04/17 00:15:03;;;;;;;5.63;1.95;;;;;;;;;;5047844;28;20029;-74
2022/04/17 00:17:30;;;;;;;5.30;2.53;;;;;;;;;;5052488;28;20179;-74
2022/04/17 00:19:56;;;;;;;4.47;2.40;;;;;;;;;;5052520;28;20033;-74
2022/04/17 00:22:23;;;;;;;6.82;2.15;;;;;;;;;;5052548;28;20025;-74
2022/04/17 00:24:49;;;;;;;6.55;2.05;;;;;;;;;;5052633;28;20711;-74
2022/04/17 00:27:15;;;;;;;3.63;2.20;;;;;;;;;;5052358;28;20036;-73
2022/04/17 00:29:44;;;;;;;4.63;2.50;;;;;;;;;;5052571;28;20485;-74
2022/04/17 00:32:10;;;;;;;5.00;2.35;;;;;;;;;;5052389;28;20126;-74
2022/04/17 00:34:37;;;;;;;5.13;2.17;;;;;;;;;;5052354;28;20078;-74
2022/04/17 00:37:03;;;;;;;5.53;1.70;;;;;;;;;;5052501;28;20078;-74
2022/04/17 00:39:29;;;;;;;9.27;2.58;;;;;;;;;;5052376;28;20032;-74
2022/04/17 00:41:55;;;;;;;4.50;2.15;;;;;;;;;;5044068;28;20408;-74
2022/04/17 00:44:22;;;;;;;7.97;2.55;;;;;;;;;;5032557;28;20018;-73
2022/04/17 00:46:48;;;;;;;5.35;2.40;;;;;;;;;;5047546;28;20041;-73
2022/04/17 00:49:14;;;;;;;3.17;1.92;;;;;;;;;;5032241;28;20040;-73
2022/04/17 00:51:42;;;;;;;6.03;2.13;;;;;;;;;;5032366;28;20025;-73
2022/04/17 00:54:12;;;;;;;6.50;2.50;;;;;;;;;;5032302;28;20371;-73
2022/04/17 00:56:38;;;;;;;4.00;2.30;;;;;;;;;;5047252;28;20076;-73
2022/04/17 00:59:06;;;;;;;4.32;2.45;;;;;;;;;;5032349;28;20124;-73
2022/04/17 01:01:33;;;;;;;3.58;2.10;;;;;;;;;;5032336;28;20037;-73
2022/04/17 01:04:03;;;;;;;3.78;2.03;;;;;;;;;;5032102;28;20035;-73
2022/04/17 01:06:29;;;;;;;5.30;2.25;;;;;;;;;;5030748;28;20045;-73
2022/04/17 01:08:55;;;;;;;5.22;2.70;;;;;;;;;;5031945;28;20033;-73
2022/04/17 01:11:22;;;;;;;3.95;2.20;;;;;;;;;;5032105;28;20091;-73
2022/04/17 01:13:48;;;;;;;4.68;2.63;;;;;;;;;;5032181;28;20024;-73
2022/04/17 01:16:17;;;;;;;5.25;2.50;;;;;;;;;;5032043;28;20033;-75
2022/04/17 01:19:11;;;;;;;5.55;2.38;;;;;;;;;;5032061;28;20137;-74
2022/04/17 01:21:37;;;;;;;6.15;2.28;;;;;;;;;;5051621;28;20421;-73
2022/04/17 01:26:58;;;;;;;7.28;2.92;;;;;;;;;;5051715;28;20028;-73
2022/04/17 01:29:25;;;;;;;5.75;2.58;;;;;;;;;;5051869;28;20021;-73
2022/04/17 01:31:51;;;;;;;4.50;2.53;;;;;;;;;;5051614;28;20021;-73
2022/04/17 01:34:18;;;;;;;7.22;2.47;;;;;;;;;;5051640;28;20033;-73
2022/04/17 01:36:44;;;;;;;3.55;2.22;;;;;;;;;;5051742;28;20386;-73
2022/04/17 01:39:11;;;;;;;5.72;2.75;;;;;;;;;;5051797;28;20111;-73
2022/04/17 01:41:37;;;;;;;4.80;2.70;;;;;;;;;;5045939;28;20021;-73
2022/04/17 01:44:04;;;;;;;5.60;2.60;;;;;;;;;;5031914;28;20029;-73
2022/04/17 01:46:30;;;;;;;4.85;2.80;;;;;;;;;;5031720;28;20033;-73
2022/04/17 01:48:56;;;;;;;6.03;2.65;;;;;;;;;;5031808;28;20079;-73
2022/04/17 01:51:22;;;;;;;5.65;2.88;;;;;;;;;;5031949;28;20029;-73
2022/04/17 01:53:48;;;;;;;4.45;2.65;;;;;;;;;;5031645;28;20026;-73
2022/04/17 01:56:14;;;;;;;8.63;2.83;;;;;;;;;;5031606;28;20122;-73
2022/04/17 01:58:40;;;;;;;4.72;2.60;;;;;;;;;;5031571;28;20058;-73
2022/04/17 02:01:07;;;;;;;4.38;2.50;;;;;;;;;;5031576;28;20061;-73
2022/04/17 02:03:33;;;;;;;5.28;2.60;;;;;;;;;;5031651;28;20029;-74
2022/04/17 02:06:01;;;;;;;5.35;2.50;;;;;;;;;;5031488;28;20033;-73
2022/04/17 02:08:28;;;;;;;3.50;2.20;;;;;;;;;;5031648;28;20029;-73
2022/04/17 02:10:54;;;;;;;6.65;2.78;;;;;;;;;;5031324;28;20033;-73
2022/04/17 02:13:20;;;;;;;6.28;2.40;;;;;;;;;;5032465;28;20034;-73
2022/04/17 02:15:47;;;;;;;6.30;2.95;;;;;;;;;;5051299;28;20578;-73
2022/04/17 02:18:13;;;;;;;4.85;2.88;;;;;;;;;;5051314;28;20083;-73
2022/04/17 02:20:39;;;;;;;5.57;2.60;;;;;;;;;;5054346;28;20102;-73
2022/04/17 02:23:05;;;;;;;5.25;2.70;;;;;;;;;;5054883;28;20016;-73
2022/04/17 02:25:31;;;;;;;6.10;2.50;;;;;;;;;;5054601;28;20062;-73
2022/04/17 02:27:57;;;;;;;5.47;2.97;;;;;;;;;;5054687;28;20025;-73
2022/04/17 02:30:23;;;;;;;6.85;2.90;;;;;;;;;;5054521;28;20447;-74
2022/04/17 02:32:49;;;;;;;6.82;3.03;;;;;;;;;;5054828;28;20028;-73
2022/04/17 02:35:17;;;;;;;19.25;5.10;;;;;;;;;;5054776;28;20033;-74
2022/04/17 02:37:43;;;;;;;5.43;3.05;;;;;;;;;;5054591;28;20467;-73
2022/04/17 02:40:09;;;;;;;6.60;3.00;;;;;;;;;;5054538;28;20025;-73
2022/04/17 02:42:35;;;;;;;6.68;3.30;;;;;;;;;;5049761;28;20025;-74
2022/04/17 02:45:01;;;;;;;6.90;3.47;;;;;;;;;;5034603;28;20338;-73
2022/04/17 02:47:42;;;;;;;5.43;3.20;;;;;;;;;;5034534;28;20033;-74
2022/04/17 02:50:08;;;;;;;5.25;3.00;;;;;;;;;;5034378;28;20025;-73
2022/04/17 02:52:35;;;;;;;5.78;3.40;;;;;;;;;;5034322;28;20025;-74
2022/04/17 02:55:01;;;;;;;6.35;3.47;;;;;;;;;;5034717;28;20100;-73
2022/04/17 02:57:28;;;;;;;6.25;3.40;;;;;;;;;;5033938;28;20360;-74
2022/04/17 02:59:54;;;;;;;6.63;3.45;;;;;;;;;;5034408;28;20045;-73
2022/04/17 03:07:50;;;;;;;7.00;3.70;;;;;;;;;;5034126;28;20059;-73
2022/04/17 03:10:16;;;;;;;7.43;3.80;;;;;;;;;;5034115;28;20026;-74
2022/04/17 03:12:42;;;;;;;6.60;3.35;;;;;;;;;;5034057;28;20412;-73
2022/04/17 03:15:08;;;;;;;8.20;4.25;;;;;;;;;;5033848;28;20136;-73
2022/04/17 03:17:34;;;;;;;7.28;3.85;;;;;;;;;;5033894;28;20047;-74
2022/04/17 03:20:00;;;;;;;8.40;3.45;;;;;;;;;;5040215;28;20017;-73
2022/04/17 03:22:26;;;;;;;7.00;3.75;;;;;;;;;;5053906;28;20513;-73
2022/04/17 03:24:52;;;;;;;9.25;3.97;;;;;;;;;;5053637;28;20444;-73
2022/04/17 03:27:19;;;;;;;5.82;3.72;;;;;;;;;;5053555;28;20029;-73
2022/04/17 03:29:45;;;;;;;7.78;4.10;;;;;;;;;;5053575;28;20025;-73
2022/04/17 03:32:11;;;;;;;8.63;4.05;;;;;;;;;;5053601;28;20428;-73
2022/04/17 03:34:38;;;;;;;7.20;3.97;;;;;;;;;;5053671;28;20191;-73
2022/04/17 03:37:04;;;;;;;7.82;4.15;;;;;;;;;;5053400;28;20463;-73
2022/04/17 03:39:31;;;;;;;7.78;4.57;;;;;;;;;;5053511;28;20100;-73
2022/04/17 03:41:57;;;;;;;8.38;4.82;;;;;;;;;;5044759;28;20017;-73
2022/04/17 03:44:26;;;;;;;7.05;3.83;;;;;;;;;;5033599;28;20376;-73
2022/04/17 03:46:52;;;;;;;8.82;4.60;;;;;;;;;;5033514;28;20029;-73
2022/04/17 03:49:18;;;;;;;8.45;4.50;;;;;;;;;;5048648;28;20032;-73
2022/04/17 03:51:44;;;;;;;7.65;4.40;;;;;;;;;;5048546;28;20044;-73
2022/04/17 03:54:10;;;;;;;7.65;4.97;;;;;;;;;;5033235;28;20030;-73
2022/04/17 03:56:36;;;;;;;9.88;4.25;;;;;;;;;;5033308;28;20041;-73
2022/04/17 03:59:02;;;;;;;10.10;4.57;;;;;;;;;;5044103;28;20045;-73
2022/04/17 04:01:29;;;;;;;9.25;4.85;;;;;;;;;;5033103;28;20108;-73
2022/04/17 04:03:55;;;;;;;8.95;4.68;;;;;;;;;;5032872;28;20033;-73
2022/04/17 04:06:21;;;;;;;8.85;4.55;;;;;;;;;;5032927;28;20029;-73
2022/04/17 04:08:49;;;;;;;7.70;4.75;;;;;;;;;;5032891;28;20040;-73
2022/04/17 04:11:15;;;;;;;8.48;4.70;;;;;;;;;;5032877;28;20448;-73
2022/04/17 04:13:44;;;;;;;9.50;5.32;;;;;;;;;;5036622;28;20032;-73
2022/04/17 04:16:10;;;;;;;9.57;5.07;;;;;;;;;;5052566;28;20079;-73
2022/04/17 04:18:36;;;;;;;10.07;5.25;;;;;;;;;;5052626;28;20060;-73
2022/04/17 04:21:02;;;;;;;10.65;5.55;;;;;;;;;;5052374;28;20056;-73
2022/04/17 04:23:33;;;;;;;10.48;5.70;;;;;;;;;;5052519;28;20028;-73
2022/04/17 04:25:59;;;;;;;11.10;4.72;;;;;;;;;;5052164;28;20021;-73
2022/04/17 04:28:38;;;;;;;12.57;5.72;;;;;;;;;;5052503;28;20395;-73
2022/04/17 04:31:08;;;;;;;10.43;5.68;;;;;;;;;;5044785;28;20479;-73
2022/04/17 04:33:34;;;;;;;8.48;5.00;;;;;;;;;;5032509;28;20086;-74
2022/04/17 04:36:01;;;;;;;16.38;5.57;;;;;;;;;;5032229;28;20075;-73
2022/04/17 04:38:27;;;;;;;12.48;5.43;;;;;;;;;;5032274;28;20030;-73
2022/04/17 04:40:53;;;;;;;10.65;5.65;;;;;;;;;;5032369;28;20337;-73
2022/04/17 04:43:19;;;;;;;12.40;5.85;;;;;;;;;;5051196;28;20785;-74
2022/04/17 04:51:15;;;;;;;13.50;5.75;;;;;;;;;;5052080;28;20057;-74
2022/04/17 04:53:41;;;;;;;13.07;5.70;;;;;;;;;;5051998;28;20079;-73
2022/04/17 04:56:08;;;;;;;10.95;6.10;;;;;;;;;;5051619;28;20532;-73
2022/04/17 04:58:34;;;;;;;13.55;5.85;;;;;;;;;;5052029;28;20105;-73
2022/04/17 05:01:00;;;;;;;10.88;5.72;;;;;;;;;;5051942;28;20124;-73
2022/04/17 05:03:26;;;;;;;14.63;5.93;;;;;;;;;;5052222;28;20032;-73
2022/04/17 05:05:52;;;;;;;12.40;5.88;;;;;;;;;;5051824;28;20348;-73
2022/04/17 05:08:19;;;;;;;16.80;5.78;;;;;;;;;;5051902;28;20033;-74
2022/04/17 05:10:45;;;;;;;14.02;6.13;;;;;;;;;;5051863;28;20510;-74
2022/04/17 05:13:11;;;;;;;12.60;5.97;;;;;;;;;;5051880;28;20039;-73
2022/04/17 05:15:37;;;;;;;9.65;5.57;;;;;;;;;;5031884;28;20041;-73
2022/04/17 05:18:03;;;;;;;10.52;5.45;;;;;;;;;;5031961;28;20523;-73
2022/04/17 05:20:33;;;;;;;12.13;5.28;;;;;;;;;;5042177;28;20032;-73
2022/04/17 05:23:15;;;;;;;11.98;5.32;;;;;;;;;;5051664;28;20032;-73
2022/04/17 05:25:41;;;;;;;13.93;5.18;;;;;;;;;;5051868;28;20032;-73
2022/04/17 05:28:07;;;;;;;12.95;5.60;;;;;;;;;;5050108;28;20024;-74
2022/04/17 05:30:33;;;;;;;9.93;5.25;;;;;;;;;;5051477;28;20021;-74
2022/04/17 05:32:59;;;;;;;11.80;5.15;;;;;;;;;;5051793;28;20032;-73
2022/04/17 05:35:25;;;;;;;10.75;4.93;;;;;;;;;;5051293;28;20120;-74
2022/04/17 05:37:51;;;;;;;11.05;5.15;;;;;;;;;;5051458;28;20207;-73
2022/04/17 05:40:17;;;;;;;10.27;4.65;;;;;;;;;;5051370;28;20021;-74
2022/04/17 05:42:43;;;;;;;8.68;5.03;;;;;;;;;;5036425;28;20468;-73
2022/04/17 05:45:10;;;;;;;8.68;4.95;;;;;;;;;;5031492;28;20017;-73
2022/04/17 05:47:36;;;;;;;10.25;5.15;;;;;;;;;;5031332;28;20137;-73
2022/04/17 05:50:02;;;;;;;7.03;4.35;;;;;;;;;;5031291;28;20467;-74
2022/04/17 05:52:28;;;;;;;14.63;5.20;;;;;;;;;;5031181;28;20064;-73
2022/04/17 05:54:54;;;;;;;8.02;4.82;;;;;;;;;;5033384;28;20045;-73
2022/04/17 05:57:20;;;;;;;10.07;5.00;;;;;;;;;;5035352;28;20025;-74
2022/04/17 05:59:47;;;;;;;9.32;4.72;;;;;;;;;;5035066;28;20053;-74
2022/04/17 06:02:14;;;;;;;13.43;4.70;;;;;;;;;;5050611;28;20037;-74
2022/04/17 06:04:40;;;;;;;9.27;5.25;;;;;;;;;;5035080;28;20025;-74
2022/04/17 06:07:06;;;;;;;11.93;5.50;;;;;;;;;;5035128;28;20496;-74
2022/04/17 06:09:32;;;;;;;8.15;4.82;;;;;;;;;;5035084;28;20026;-73
2022/04/17 06:11:58;;;;;;;11.68;4.72;;;;;;;;;;5035005;28;20495;-74
2022/04/17 06:14:24;;;;;;;8.57;5.32;;;;;;;;;;5044429;28;20032;-73
2022/04/17 06:16:50;;;;;;;9.73;5.05;;;;;;;;;;5054809;28;20029;-73
2022/04/17 06:19:17;;;;;;;8.73;4.97;;;;;;;;;;5054525;28;20078;-74
2022/04/17 06:21:43;;;;;;;11.50;5.18;;;;;;;;;;5054626;28;20459;-74
2022/04/17 06:24:09;;;;;;;11.02;5.40;;;;;;;;;;5054820;28;20021;-74
2022/04/17 06:26:35;;;;;;;9.18;5.07;;;;;;;;;;5054759;28;20033;-74
2022/04/17 06:29:08;;;;;;;12.35;5.00;;;;;;;;;;5054709;28;20040;-73
2022/04/17 06:31:34;;;;;;;14.20;4.63;;;;;;;;;;5054769;28;20487;-73
2022/04/17 06:34:00;;;;;;;14.68;4.38;;;;;;;;;;5054652;28;20029;-74
2022/04/17 06:36:26;;;;;;;8.88;5.05;;;;;;;;;;5054625;28;20112;-74
2022/04/17 06:38:52;;;;;;;10.00;4.45;;;;;;;;;;5054786;28;20025;-74
2022/04/17 06:41:18;;;;;;;8.00;4.30;;;;;;;;;;5054484;28;20100;-74
2022/04/17 06:43:44;;;;;;;9.27;4.63;;;;;;;;;;5054435;28;20060;-74
2022/04/17 06:46:10;;;;;;;11.80;4.65;;;;;;;;;;5054204;28;20053;-74
2022/04/17 06:48:36;;;;;;;9.40;4.40;;;;;;;;;;5054623;28;20025;-74
2022/04/17 06:51:02;;;;;;;10.10;3.90;;;;;;;;;;5054341;28;20386;-74
2022/04/17 06:53:28;;;;;;;6.00;3.83;;;;;;;;;;5054573;28;20037;-74
2022/04/17 06:55:54;;;;;;;8.23;4.00;;;;;;;;;;5054550;28;20040;-74
2022/04/17 06:58:20;;;;;;;7.55;4.15;;;;;;;;;;5054034;28;20037;-74
2022/04/17 07:00:48;;;;;;;6.93;3.38;;;;;;;;;;5054217;28;20021;-74
2022/04/17 07:03:14;;;;;;;9.35;4.30;;;;;;;;;;5054150;28;20017;-74
2022/04/17 07:05:41;;;;;;;7.57;3.88;;;;;;;;;;5053714;28;20041;-73
2022/04/17 07:08:07;;;;;;;7.65;3.60;;;;;;;;;;5054150;28;20025;-73
2022/04/17 07:10:37;;;;;;;7.85;3.72;;;;;;;;;;5054131;28;20028;-73
2022/04/17 07:13:03;;;;;;;10.75;4.07;;;;;;;;;;5052730;28;20056;-74
2022/04/17 07:15:29;;;;;;;8.38;3.35;;;;;;;;;;5035153;28;20022;-74
2022/04/17 07:17:55;;;;;;;5.63;3.35;;;;;;;;;;5032740;28;20029;-73
2022/04/17 07:20:21;;;;;;;6.28;3.45;;;;;;;;;;5043217;28;20418;-73
2022/04/17 07:22:48;;;;;;;11.27;3.35;;;;;;;;;;5053901;28;20017;-74
2022/04/17 07:25:15;;;;;;;5.75;3.28;;;;;;;;;;5053715;28;20021;-74
2022/04/17 07:27:42;;;;;;;5.18;3.00;;;;;;;;;;5053614;28;20024;-73
2022/04/17 07:30:10;;;;;;;5.25;2.97;;;;;;;;;;5053754;28;20136;-73
2022/04/17 07:32:36;;;;;;;5.38;2.97;;;;;;;;;;5033827;28;20379;-73
2022/04/17 07:35:03;;;;;;;5.72;3.17;;;;;;;;;;5033447;28;20041;-74
2022/04/17 07:37:32;;;;;;;5.72;3.33;;;;;;;;;;5033897;28;20026;-74
2022/04/17 07:39:58;;;;;;;6.30;3.22;;;;;;;;;;5033650;28;20021;-74
2022/04/17 07:42:24;;;;;;;5.90;3.20;;;;;;;;;;5045483;28;20095;-74
2022/04/17 07:44:50;;;;;;;6.70;2.78;;;;;;;;;;5053343;28;20059;-73
2022/04/17 07:47:16;;;;;;;6.22;3.10;;;;;;;;;;5053420;28;20104;-73
2022/04/17 07:49:43;;;;;;;6.05;3.22;;;;;;;;;;5053450;28;20025;-73
2022/04/17 07:52:09;;;;;;;10.05;3.50;;;;;;;;;;5053457;28;20078;-74
2022/04/17 07:54:35;;;;;;;8.88;3.33;;;;;;;;;;5053392;28;20114;-74
2022/04/17 07:57:01;;;;;;;8.40;3.13;;;;;;;;;;5053186;28;20542;-74
2022/04/17 07:59:27;;;;;;;7.80;3.22;;;;;;;;;;5052836;28;20099;-73
2022/04/17 08:02:01;;;;;;;4.28;2.67;;;;;;;;;;5053147;28;20025;-73
2022/04/17 08:04:28;;;;;;;6.10;3.15;;;;;;;;;;5053003;28;20032;-74
2022/04/17 08:06:54;;;;;;;4.03;2.58;;;;;;;;;;5051385;28;20035;-73
2022/04/17 08:09:20;;;;;;;5.85;2.70;;;;;;;;;;5053125;28;20471;-74
2022/04/17 08:11:51;;;;;;;5.55;3.25;;;;;;;;;;5051560;28;20163;-73
2022/04/17 08:14:18;;;;;;;5.82;3.20;;;;;;;;;;5052905;28;20029;-73
2022/04/17 08:16:44;;;;;;;5.13;3.00;;;;;;;;;;5052275;28;20040;-74
2022/04/17 08:19:10;;;;;;;5.25;2.88;;;;;;;;;;5052832;28;20051;-74
2022/04/17 08:21:37;;;;;;;4.93;3.35;;;;;;;;;;5052713;28;20040;-73
2022/04/17 08:24:03;;;;;;;5.68;2.90;;;;;;;;;;5052719;28;20029;-74
2022/04/17 08:26:29;;;;;;;5.50;3.35;;;;;;;;;;5052509;28;20032;-74
2022/04/17 08:28:55;;;;;;;7.43;3.35;;;;;;;;;;5052714;28;20025;-73
2022/04/17 08:31:21;;;;;;;5.50;3.25;;;;;;;;;;5052534;28;20021;-73
2022/04/17 08:33:47;;;;;;;6.25;3.30;;;;;;;;;;5052702;28;20021;-74
2022/04/17 08:36:13;;;;;;;9.48;3.20;;;;;;;;;;5052306;28;20459;-73
2022/04/17 08:38:42;;;;;;;8.07;3.28;;;;;;;;;;5052438;28;20040;-74
2022/04/17 08:41:09;;;;;;;6.65;3.30;;;;;;;;;;5050774;28;20045;-73
2022/04/17 08:43:36;;;;;;;4.70;2.72;;;;;;;;;;5032497;28;20024;-74
2022/04/17 08:46:03;;;;;;;9.00;2.92;;;;;;;;;;5032595;28;20128;-74
2022/04/17 08:48:29;;;;;;;10.70;2.88;;;;;;;;;;5032597;28;20494;-73
2022/04/17 08:50:56;;;;;;;5.47;2.88;;;;;;;;;;5032428;28;20080;-73
2022/04/17 08:53:22;;;;;;;5.80;3.55;;;;;;;;;;5032410;28;20043;-74
2022/04/17 08:55:50;;;;;;;6.03;2.60;;;;;;;;;;5032613;28;20404;-74
2022/04/17 08:58:16;;;;;;;6.45;2.80;;;;;;;;;;5032431;28;20131;-74
2022/04/17 09:00:42;;;;;;;6.10;3.03;;;;;;;;;;5032235;28;20049;-74
2022/04/17 09:03:09;;;;;;;4.90;2.40;;;;;;;;;;5032379;28;20120;-74
2022/04/17 09:05:35;;;;;;;5.22;2.80;;;;;;;;;;5047886;28;20017;-74
2022/04/17 09:08:12;;;;;;;4.88;2.67;;;;;;;;;;5032151;28;20031;-74
2022/04/17 09:10:38;;;;;;;5.00;3.20;;;;;;;;;;5032133;28;20025;-74
2022/04/17 09:13:04;;;;;;;4.38;2.78;;;;;;;;;;5032361;28;20025;-74
2022/04/17 09:15:32;;;;;;;6.03;2.97;;;;;;;;;;5032004;28;20061;-74
2022/04/17 09:17:58;;;;;;;6.10;2.78;;;;;;;;;;5031931;28;20025;-74
2022/04/17 09:20:25;;;;;;;6.72;3.03;;;;;;;;;;5041639;28;20029;-74
2022/04/17 09:22:52;;;;;;;5.07;3.25;;;;;;;;;;5051835;28;20017;-74
2022/04/17 09:25:18;;;;;;;8.27;3.80;;;;;;;;;;5051852;28;20025;-74
2022/04/17 09:27:57;;;;;;;7.80;3.45;;;;;;;;;;5052055;28;20052;-73
2022/04/17 09:30:34;;;;;;;8.45;3.85;;;;;;;;;;5054595;28;20078;-74
2022/04/17 09:33:09;;;;;;;4.90;2.97;;;;;;;;;;5056210;28;20037;-74
2022/04/17 09:35:35;;;;;;;4.25;2.72;;;;;;;;;;5054493;28;20025;-74
2022/04/17 09:38:05;;;;;;;5.25;2.88;;;;;;;;;;5055886;28;20083;-74
2022/04/17 09:40:31;;;;;;;3.90;2.50;;;;;;;;;;5056050;28;20444;-74
2022/04/17 09:43:07;;;;;;;4.82;2.90;;;;;;;;;;5039191;28;20056;-74
2022/04/17 09:45:33;;;;;;;4.47;2.60;;;;;;;;;;5035750;28;20064;-74
2022/04/17 09:48:00;;;;;;;5.05;2.70;;;;;;;;;;5036112;28;20057;-74
2022/04/17 09:50:35;;;;;;;3.97;2.58;;;;;;;;;;5035547;28;20125;-74
2022/04/17 09:53:05;;;;;;;6.25;2.92;;;;;;;;;;5035752;28;20029;-74
2022/04/17 09:55:38;;;;;;;5.57;2.90;;;;;;;;;;5035633;28;20104;-74
2022/04/17 09:58:04;;;;;;;4.28;2.67;;;;;;;;;;5035696;28;20128;-74
2022/04/17 10:00:40;;;;;;;3.97;2.70;;;;;;;;;;5034109;28;20041;-74
2022/04/17 10:03:09;;;;;;;4.80;2.67;;;;;;;;;;5035654;28;20072;-74
2022/04/17 10:05:35;;;;;;;4.25;2.35;;;;;;;;;;5035562;28;20101;-74
2022/04/17 10:08:01;;;;;;;4.25;1.98;;;;;;;;;;5035215;28;20026;-74
2022/04/17 10:10:27;;;;;;;2.65;2.05;;;;;;;;;;5035245;28;20025;-73
2022/04/17 10:12:54;;;;;;;2.80;2.00;;;;;;;;;;5035384;28;20476;-74
2022/04/17 10:15:20;;;;;;;3.35;2.20;;;;;;;;;;5052526;28;20032;-74
2022/04/17 10:17:46;;;;;;;6.15;2.85;;;;;;;;;;5053921;28;20029;-74
2022/04/17 10:20:14;;;;;;;7.07;2.40;;;;;;;;;;5055115;28;20020;-74
2022/04/17 10:22:43;;;;;;;5.05;2.30;;;;;;;;;;5054856;28;20471;-74
2022/04/17 10:25:09;;;;;;;3.10;1.90;;;;;;;;;;5054977;28;20033;-74
2022/04/17 10:27:43;;;;;;;2.90;1.90;;;;;;;;;;5054730;28;20411;-74
2022/04/17 10:30:10;;;;;;;3.38;1.88;;;;;;;;;;5054767;28;20033;-74
2022/04/17 10:32:42;;;;;;;2.95;1.77;;;;;;;;;;5035066;28;20033;-74
2022/04/17 10:35:20;;;;;;;3.55;1.98;;;;;;;;;;5034991;28;20368;-74
2022/04/17 10:37:52;;;;;;;7.15;2.25;;;;;;;;;;5034858;28;20047;-74
2022/04/17 10:40:19;;;;;;;6.40;2.28;;;;;;;;;;5033922;28;20029;-74
2022/04/17 10:43:01;;;;;;;3.60;1.90;;;;;;;;;;5034806;28;20044;-74
2022/04/17 10:45:31;;;;;;;4.45;2.10;;;;;;;;;;5034598;28;20042;-73
2022/04/17 10:48:12;;;;;;;3.13;1.88;;;;;;;;;;5034616;28;20076;-73
2022/04/17 10:50:41;;;;;;;3.05;1.70;;;;;;;;;;5034636;28;20021;-73
2022/04/17 10:53:24;;;;;;;3.45;2.28;;;;;;;;;;5034763;28;20333;-73
2022/04/17 10:56:06;;;;;;;4.38;1.98;;;;;;;;;;5034281;28;20021;-74
2022/04/17 10:58:35;;;;;;;4.60;2.05;;;;;;;;;;5034390;28;20026;-74
2022/04/17 11:01:01;;;;;;;2.20;1.50;;;;;;;;;;5034479;28;20391;-74
2022/04/17 11:03:27;;;;;;;2.38;1.70;;;;;;;;;;5034405;28;20093;-73
2022/04/17 11:06:09;;;;;;;4.72;1.90;;;;;;;;;;5034342;28;20032;-74
2022/04/17 11:08:57;;;;;;;3.90;2.00;;;;;;;;;;5034282;28;20333;-73
2022/04/17 11:11:34;;;;;;;3.13;1.77;;;;;;;;;;5034308;28;20075;-74
2022/04/17 11:14:11;;;;;;;4.70;1.75;;;;;;;;;;5040532;28;20013;-74
2022/04/17 11:16:42;;;;;;;4.32;2.13;;;;;;;;;;5053905;28;20100;-74
2022/04/17 11:19:12;;;;;;;3.20;2.10;;;;;;;;;;5054026;28;20029;-73
2022/04/17 11:21:41;;;;;;;10.93;2.40;;;;;;;;;;5053654;28;20044;-74
2022/04/17 11:24:08;;;;;;;2.78;2.00;;;;;;;;;;5053711;28;20021;-73
2022/04/17 11:26:54;;;;;;;3.65;2.08;;;;;;;;;;5053605;28;20029;-75
2022/04/17 11:29:36;;;;;;;5.00;2.08;;;;;;;;;;5053587;28;20426;-75
2022/04/17 11:32:02;;;;;;;6.03;2.20;;;;;;;;;;5053835;28;20025;-74
2022/04/17 11:34:41;;;;;;;8.95;2.13;;;;;;;;;;5052226;28;20418;-75
2022/04/17 11:37:07;;;;;;;4.53;1.95;;;;;;;;;;5053548;28;20025;-75
2022/04/17 11:39:34;;;;;;;4.72;2.00;;;;;;;;;;5053741;28;20075;-74
2022/04/17 11:42:00;;;;;;;5.70;1.85;;;;;;;;;;5053127;28;20009;-75
2022/04/17 11:44:26;;;;;;;5.32;2.00;;;;;;;;;;5053237;28;20082;-75
2022/04/17 11:46:52;;;;;;;4.20;1.90;;;;;;;;;;5051583;28;20426;-75
2022/04/17 11:49:19;;;;;;;3.22;1.95;;;;;;;;;;5053258;28;20136;-74
2022/04/17 11:51:45;;;;;;;6.25;2.17;;;;;;;;;;5053261;28;20061;-75
2022/04/17 11:54:29;;;;;;;3.17;2.20;;;;;;;;;;5053178;28;20364;-75
2022/04/17 11:56:56;;;;;;;4.20;2.03;;;;;;;;;;5052922;28;20471;-75
2022/04/17 11:59:23;;;;;;;5.75;2.00;;;;;;;;;;5053177;28;20499;-74
2022/04/17 12:02:06;;;;;;;2.85;1.70;;;;;;;;;;5053071;28;20021;-75
2022/04/17 12:04:38;;;;;;;3.55;1.65;;;;;;;;;;5053100;28;20021;-75
2022/04/17 12:07:04;;;;;;;4.00;1.85;;;;;;;;;;5052913;28;20041;-74
2022/04/17 12:09:30;;;;;;;4.00;1.92;;;;;;;;;;5052776;28;20100;-74
2022/04/17 12:11:56;;;;;;;4.00;1.75;;;;;;;;;;5053052;28;20021;-74
2022/04/17 12:14:29;;;;;;;3.38;2.13;;;;;;;;;;5043320;28;20112;-74
2022/04/17 12:16:55;;;;;;;2.50;1.80;;;;;;;;;;5032886;28;20022;-73
2022/04/17 12:19:21;;;;;;;4.55;2.63;;;;;;;;;;5032097;28;20056;-73
2022/04/17 12:21:47;;;;;;;3.22;1.98;;;;;;;;;;5052752;28;20032;-74
2022/04/17 12:24:13;;;;;;;3.60;2.20;;;;;;;;;;5052493;28;20053;-74
2022/04/17 12:26:40;;;;;;;3.28;2.13;;;;;;;;;;5052299;28;20087;-73
2022/04/17 12:29:06;;;;;;;3.53;2.10;;;;;;;;;;5052565;28;20036;-74
2022/04/17 12:31:32;;;;;;;3.70;2.30;;;;;;;;;;5051034;28;20490;-74
2022/04/17 12:34:08;;;;;;;14.70;2.10;;;;;;;;;;5050976;28;20032;-74
2022/04/17 12:36:38;;;;;;;3.45;2.03;;;;;;;;;;5052486;28;20029;-74
2022/04/17 12:39:05;;;;;;;4.38;1.90;;;;;;;;;;5051130;28;20124;-73
2022/04/17 12:41:37;;;;;;;3.22;2.13;;;;;;;;;;5050892;28;20017;-74
2022/04/17 12:44:04;;;;;;;4.28;2.30;;;;;;;;;;5052308;28;20021;-74
2022/04/17 12:46:33;;;;;;;5.43;2.33;;;;;;;;;;5052200;28;20028;-74
2022/04/17 12:49:12;;;;;;;5.15;1.88;;;;;;;;;;5052003;28;20047;-74
2022/04/17 12:51:53;;;;;;;4.45;2.00;;;;;;;;;;5051923;28;20506;-74
2022/04/17 12:54:19;;;;;;;3.80;2.03;;;;;;;;;;5052358;28;20494;-74
2022/04/17 12:56:47;;;;;;;5.38;1.80;;;;;;;;;;5052168;28;20380;-74
2022/04/17 12:59:13;;;;;;;8.77;1.90;;;;;;;;;;5051868;28;20798;-74
2022/04/17 13:01:48;;;;;;;3.88;1.98;;;;;;;;;;5052124;28;20064;-74
2022/04/17 13:04:17;;;;;;;4.80;1.83;;;;;;;;;;5050474;28;20115;-74
2022/04/17 13:06:43;;;;;;;5.53;2.08;;;;;;;;;;5052019;28;20483;-74
2022/04/17 13:09:12;;;;;;;2.88;1.77;;;;;;;;;;5051760;28;20104;-74
2022/04/17 13:11:42;;;;;;;4.07;1.98;;;;;;;;;;5052076;28;20447;-74
2022/04/17 13:14:09;;;;;;;3.92;2.03;;;;;;;;;;5051750;28;20090;-74
2022/04/17 13:16:35;;;;;;;11.80;2.05;;;;;;;;;;5051999;28;20025;-73
2022/04/17 13:19:02;;;;;;;3.38;1.88;;;;;;;;;;5051750;28;20021;-74
2022/04/17 13:21:28;;;;;;;3.65;1.88;;;;;;;;;;5051965;28;20037;-74
2022/04/17 13:23:54;;;;;;;6.32;1.90;;;;;;;;;;5051937;28;20021;-74
2022/04/17 13:26:21;;;;;;;2.60;1.90;;;;;;;;;;5051454;28;20032;-74
2022/04/17 13:28:48;;;;;;;3.55;1.77;;;;;;;;;;5051841;28;20032;-74
2022/04/17 13:31:14;;;;;;;5.15;2.25;;;;;;;;;;5042914;28;20018;-74
2022/04/17 13:33:40;;;;;;;4.07;2.13;;;;;;;;;;5031793;28;20044;-74
2022/04/17 13:36:06;;;;;;;3.15;2.10;;;;;;;;;;5031692;28;20021;-74
2022/04/17 13:38:32;;;;;;;5.05;2.30;;;;;;;;;;5031663;28;20460;-74
2022/04/17 13:40:59;;;;;;;5.25;2.35;;;;;;;;;;5031562;28;20098;-74
2022/04/17 13:43:25;;;;;;;5.80;2.60;;;;;;;;;;5031971;28;20018;-74
2022/04/17 13:45:51;;;;;;;3.55;2.10;;;;;;;;;;5031920;28;20139;-74
2022/04/17 13:48:17;;;;;;;4.25;2.20;;;;;;;;;;5031933;28;20032;-74
2022/04/17 13:50:43;;;;;;;4.55;2.28;;;;;;;;;;5031840;28;20022;-74
2022/04/17 13:53:09;;;;;;;3.92;2.25;;;;;;;;;;5031773;28;20113;-74
2022/04/17 13:55:36;;;;;;;6.10;2.25;;;;;;;;;;5031660;28;20029;-74
2022/04/17 13:58:02;;;;;;;4.15;2.90;;;;;;;;;;5031532;28;20037;-74
2022/04/17 14:00:28;;;;;;;5.05;2.92;;;;;;;;;;5031749;28;20045;-74
2022/04/17 14:02:54;;;;;;;5.55;2.65;;;;;;;;;;5031663;28;20539;-74
2022/04/17 14:05:20;;;;;;;5.03;2.53;;;;;;;;;;5031448;28;20025;-75
2022/04/17 14:07:46;;;;;;;6.85;2.75;;;;;;;;;;5031526;28;20071;-75
2022/04/17 14:10:12;;;;;;;4.75;3.25;;;;;;;;;;5031454;28;20143;-74
2022/04/17 14:12:39;;;;;;;22.20;2.95;;;;;;;;;;5031356;28;20025;-74
2022/04/17 14:15:06;;;;;;;8.27;3.08;;;;;;;;;;5047425;28;20379;-74
2022/04/17 14:17:32;;;;;;;8.95;3.05;;;;;;;;;;5054811;28;20021;-74
2022/04/17 14:19:58;;;;;;;4.75;2.47;;;;;;;;;;5054906;28;20124;-74
2022/04/17 14:22:24;;;;;;;4.88;3.00;;;;;;;;;;5054912;28;20104;-73
2022/04/17 14:24:54;;;;;;;5.20;2.80;;;;;;;;;;5054760;28;20500;-75
2022/04/17 14:27:21;;;;;;;3.65;2.70;;;;;;;;;;5054785;28;20040;-74
2022/04/17 14:29:50;;;;;;;5.20;3.28;;;;;;;;;;5054788;28;20447;-73
2022/04/17 14:32:16;;;;;;;5.50;2.85;;;;;;;;;;5054436;28;20100;-73
2022/04/17 14:34:45;;;;;;;9.63;2.63;;;;;;;;;;5054727;28;20029;-73
2022/04/17 14:37:11;;;;;;;3.15;2.33;;;;;;;;;;5054242;28;20025;-73
2022/04/17 14:39:38;;;;;;;4.85;2.45;;;;;;;;;;5054479;28;20482;-73
2022/04/17 14:42:04;;;;;;;3.25;2.10;;;;;;;;;;5054340;28;20051;-73
2022/04/17 14:44:30;;;;;;;3.50;2.30;;;;;;;;;;5054327;28;20105;-74
2022/04/17 14:46:56;;;;;;;4.75;2.25;;;;;;;;;;5053132;28;20070;-74
2022/04/17 14:49:24;;;;;;;5.15;2.40;;;;;;;;;;5054327;28;20111;-74
2022/04/17 14:51:50;;;;;;;3.40;2.15;;;;;;;;;;5054230;28;20479;-74
2022/04/17 14:54:17;;;;;;;4.53;2.65;;;;;;;;;;5054328;28;20428;-74
2022/04/17 14:56:44;;;;;;;6.70;2.50;;;;;;;;;;5053945;28;20444;-74